sensor_id;sensor_type;location;lat;lon;timestamp;temperature;humidity
7360;DHT22;3720;48.274;7.796;2024-02-14T00:01:37;7.00;99.90
7360;DHT22;3720;48.274;7.796;2024-02-14T00:04:09;7.00;99.90
7360;DHT22;3720;48.274;7.796;2024-02-14T00:06:44;7.00;99.90
7360;DHT22;3720;48.274;7.796;2024-02-14T00:09:16;7.00;99.90
7360;DHT22;3720;48.274;7.796;2024-02-14T00:11:48;7.00;99.90
7360;DHT22;3720;48.274;7.796;2024-02-14T00:14:20;7.00;99.90
7360;DHT22;3720;48.274;7.796;2024-02-14T00:16:52;7.00;99.90
7360;DHT22;3720;48.274;7.796;2024-02-14T00:19:24;7.00;99.90
7360;DHT22;3720;48.274;7.796;2024-02-14T00:21:57;6.90;99.90
7360;DHT22;3720;48.274;7.796;2024-02-14T00:24:29;6.90;99.90
7360;DHT22;3720;48.274;7.796;2024-02-14T00:27:03;6.90;99.90
7360;DHT22;3720;48.274;7.796;2024-02-14T00:29:34;6.90;99.90
7360;DHT22;3720;48.274;7.796;2024-02-14T00:32:06;6.90;99.90
7360;DHT22;3720;48.274;7.796;2024-02-14T00:34:38;6.90;99.90
7360;DHT22;3720;48.274;7.796;2024-02-14T00:37:11;6.90;99.90
7360;DHT22;3720;48.274;7.796;2024-02-14T00:39:44;6.80;99.90
7360;DHT22;3720;48.274;7.796;2024-02-14T00:42:15;6.80;99.90
7360;DHT22;3720;48.274;7.796;2024-02-14T00:44:47;6.80;99.90
7360;DHT22;3720;48.274;7.796;2024-02-14T00:47:19;6.80;99.90
7360;DHT22;3720;48.274;7.796;2024-02-14T00:49:51;6.80;99.90
7360;DHT22;3720;48.274;7.796;2024-02-14T00:52:24;6.80;99.90
7360;DHT22;3720;48.274;7.796;2024-02-14T00:54:56;6.80;99.90
7360;DHT22;3720;48.274;7.796;2024-02-14T00:57:28;6.70;99.90
7360;DHT22;3720;48.274;7.796;2024-02-14T01:00:01;6.80;99.90
7360;DHT22;3720;48.274;7.796;2024-02-14T01:02:34;6.80;99.90
7360;DHT22;3720;48.274;7.796;2024-02-14T01:05:06;6.70;99.90
7360;DHT22;3720;48.274;7.796;2024-02-14T01:07:40;6.80;99.90
7360;DHT22;3720;48.274;7.796;2024-02-14T01:10:11;6.80;99.90
7360;DHT22;3720;48.274;7.796;2024-02-14T01:12:43;6.70;99.90
7360;DHT22;3720;48.274;7.796;2024-02-14T01:15:15;6.70;99.90
7360;DHT22;3720;48.274;7.796;2024-02-14T01:17:47;6.60;99.90
7360;DHT22;3720;48.274;7.796;2024-02-14T01:20:19;6.60;99.90
7360;DHT22;3720;48.274;7.796;2024-02-14T01:22:53;6.60;99.90
7360;DHT22;3720;48.274;7.796;2024-02-14T01:25:26;6.70;99.90
7360;DHT22;3720;48.274;7.796;2024-02-14T01:27:58;6.70;99.90
7360;DHT22;3720;48.274;7.796;2024-02-14T01:30:30;6.70;99.90
7360;DHT22;3720;48.274;7.796;2024-02-14T01:33:02;6.70;99.90
7360;DHT22;3720;48.274;7.796;2024-02-14T01:35:34;6.70;99.90
7360;DHT22;3720;48.274;7.796;2024-02-14T01:38:08;6.70;99.90
7360;DHT22;3720;48.274;7.796;2024-02-14T01:40:42;6.60;99.90
7360;DHT22;3720;48.274;7.796;2024-02-14T01:43:14;6.70;99.90
7360;DHT22;3720;48.274;7.796;2024-02-14T01:45:46;6.80;99.90
7360;DHT22;3720;48.274;7.796;2024-02-14T01:48:18;7.00;99.90
7360;DHT22;3720;48.274;7.796;2024-02-14T01:50:51;7.20;99.90
7360;DHT22;3720;48.274;7.796;2024-02-14T01:53:24;7.50;99.90
7360;DHT22;3720;48.274;7.796;2024-02-14T01:55:57;7.70;99.90
7360;DHT22;3720;48.274;7.796;2024-02-14T01:58:30;7.90;99.90
7360;DHT22;3720;48.274;7.796;2024-02-14T02:01:02;8.10;99.90
7360;DHT22;3720;48.274;7.796;2024-02-14T02:03:34;8.20;99.90
7360;DHT22;3720;48.274;7.796;2024-02-14T02:06:08;8.30;99.90
7360;DHT22;3720;48.274;7.796;2024-02-14T02:08:42;8.40;99.90
7360;DHT22;3720;48.274;7.796;2024-02-14T02:11:14;8.40;99.90
7360;DHT22;3720;48.274;7.796;2024-02-14T02:13:46;8.40;99.90
7360;DHT22;3720;48.274;7.796;2024-02-14T02:16:18;8.50;99.90
7360;DHT22;3720;48.274;7.796;2024-02-14T02:18:50;8.50;99.90
7360;DHT22;3720;48.274;7.796;2024-02-14T02:21:23;8.60;99.90
7360;DHT22;3720;48.274;7.796;2024-02-14T02:23:56;8.60;99.90
7360;DHT22;3720;48.274;7.796;2024-02-14T02:26:28;8.60;99.90
7360;DHT22;3720;48.274;7.796;2024-02-14T02:28:59;8.70;99.90
7360;DHT22;3720;48.274;7.796;2024-02-14T02:31:31;8.60;99.90
7360;DHT22;3720;48.274;7.796;2024-02-14T02:34:03;8.70;99.90
7360;DHT22;3720;48.274;7.796;2024-02-14T02:36:35;8.60;99.90
7360;DHT22;3720;48.274;7.796;2024-02-14T02:39:09;8.70;99.90
7360;DHT22;3720;48.274;7.796;2024-02-14T02:41:43;8.70;99.90
7360;DHT22;3720;48.274;7.796;2024-02-14T02:44:19;8.70;99.90
7360;DHT22;3720;48.274;7.796;2024-02-14T02:46:51;8.70;99.90
7360;DHT22;3720;48.274;7.796;2024-02-14T02:49:23;8.70;99.90
7360;DHT22;3720;48.274;7.796;2024-02-14T02:51:55;8.80;99.90
7360;DHT22;3720;48.274;7.796;2024-02-14T02:54:28;8.80;99.90
7360;DHT22;3720;48.274;7.796;2024-02-14T02:57:00;8.70;99.90
7360;DHT22;3720;48.274;7.796;2024-02-14T02:59:34;8.70;99.90
7360;DHT22;3720;48.274;7.796;2024-02-14T03:02:06;8.80;99.90
7360;DHT22;3720;48.274;7.796;2024-02-14T03:04:40;8.70;99.90
7360;DHT22;3720;48.274;7.796;2024-02-14T03:07:12;8.80;99.90
7360;DHT22;3720;48.274;7.796;2024-02-14T03:09:45;8.80;99.90
7360;DHT22;3720;48.274;7.796;2024-02-14T03:12:17;8.80;99.90
7360;DHT22;3720;48.274;7.796;2024-02-14T03:14:49;8.90;99.90
7360;DHT22;3720;48.274;7.796;2024-02-14T03:17:21;8.90;99.90
7360;DHT22;3720;48.274;7.796;2024-02-14T03:19:53;9.00;99.90
7360;DHT22;3720;48.274;7.796;2024-02-14T03:22:27;9.00;99.90
7360;DHT22;3720;48.274;7.796;2024-02-14T03:25:00;9.00;99.90
7360;DHT22;3720;48.274;7.796;2024-02-14T03:27:32;9.00;99.90
7360;DHT22;3720;48.274;7.796;2024-02-14T03:30:06;9.00;99.90
7360;DHT22;3720;48.274;7.796;2024-02-14T03:32:38;9.00;99.90
7360;DHT22;3720;48.274;7.796;2024-02-14T03:35:10;9.10;99.90
7360;DHT22;3720;48.274;7.796;2024-02-14T03:37:45;9.10;99.90
7360;DHT22;3720;48.274;7.796;2024-02-14T03:40:20;9.10;99.90
7360;DHT22;3720;48.274;7.796;2024-02-14T03:42:52;9.10;99.90
7360;DHT22;3720;48.274;7.796;2024-02-14T03:45:24;9.20;99.90
7360;DHT22;3720;48.274;7.796;2024-02-14T03:47:56;9.10;99.90
7360;DHT22;3720;48.274;7.796;2024-02-14T03:50:28;9.20;99.90
7360;DHT22;3720;48.274;7.796;2024-02-14T03:52:59;9.10;99.90
7360;DHT22;3720;48.274;7.796;2024-02-14T03:55:33;9.10;99.90
7360;DHT22;3720;48.274;7.796;2024-02-14T03:58:05;9.20;99.90
7360;DHT22;3720;48.274;7.796;2024-02-14T04:00:39;9.30;99.90
7360;DHT22;3720;48.274;7.796;2024-02-14T04:03:12;9.40;99.90
7360;DHT22;3720;48.274;7.796;2024-02-14T04:05:44;9.40;99.90
7360;DHT22;3720;48.274;7.796;2024-02-14T04:08:18;9.50;99.90
7360;DHT22;3720;48.274;7.796;2024-02-14T04:10:51;9.50;99.90
7360;DHT22;3720;48.274;7.796;2024-02-14T04:13:24;9.60;99.90
7360;DHT22;3720;48.274;7.796;2024-02-14T04:15:56;9.60;99.90
7360;DHT22;3720;48.274;7.796;2024-02-14T04:18:28;9.60;99.90
7360;DHT22;3720;48.274;7.796;2024-02-14T04:20:59;9.60;99.90
7360;DHT22;3720;48.274;7.796;2024-02-14T04:23:31;9.60;99.90
7360;DHT22;3720;48.274;7.796;2024-02-14T04:26:04;9.60;99.90
7360;DHT22;3720;48.274;7.796;2024-02-14T04:28:38;9.70;99.90
7360;DHT22;3720;48.274;7.796;2024-02-14T04:31:11;9.70;99.90
7360;DHT22;3720;48.274;7.796;2024-02-14T04:33:42;9.70;99.90
7360;DHT22;3720;48.274;7.796;2024-02-14T04:36:17;9.70;99.90
7360;DHT22;3720;48.274;7.796;2024-02-14T04:38:49;9.70;99.90
7360;DHT22;3720;48.274;7.796;2024-02-14T04:41:23;9.70;99.90
7360;DHT22;3720;48.274;7.796;2024-02-14T04:43:55;9.70;99.90
7360;DHT22;3720;48.274;7.796;2024-02-14T04:46:26;9.70;99.90
7360;DHT22;3720;48.274;7.796;2024-02-14T04:49:00;9.70;99.90
7360;DHT22;3720;48.274;7.796;2024-02-14T04:51:33;9.70;99.90
7360;DHT22;3720;48.274;7.796;2024-02-14T04:54:05;9.70;99.90
7360;DHT22;3720;48.274;7.796;2024-02-14T04:56:39;9.70;99.90
7360;DHT22;3720;48.274;7.796;2024-02-14T04:59:11;9.70;99.90
7360;DHT22;3720;48.274;7.796;2024-02-14T05:01:43;9.80;99.90
7360;DHT22;3720;48.274;7.796;2024-02-14T05:04:14;9.80;99.90
7360;DHT22;3720;48.274;7.796;2024-02-14T05:06:47;9.80;99.90
7360;DHT22;3720;48.274;7.796;2024-02-14T05:09:18;9.70;99.90
7360;DHT22;3720;48.274;7.796;2024-02-14T05:11:52;9.70;99.90
7360;DHT22;3720;48.274;7.796;2024-02-14T05:14:24;9.80;99.90
7360;DHT22;3720;48.274;7.796;2024-02-14T05:16:56;9.80;99.90
7360;DHT22;3720;48.274;7.796;2024-02-14T05:19:28;9.90;99.90
7360;DHT22;3720;48.274;7.796;2024-02-14T05:22:00;9.90;99.90
7360;DHT22;3720;48.274;7.796;2024-02-14T05:24:32;10.00;99.90
7360;DHT22;3720;48.274;7.796;2024-02-14T05:27:09;10.00;99.90
7360;DHT22;3720;48.274;7.796;2024-02-14T05:29:41;10.00;99.90
7360;DHT22;3720;48.274;7.796;2024-02-14T05:32:13;10.00;99.90
7360;DHT22;3720;48.274;7.796;2024-02-14T05:34:44;10.00;99.90
7360;DHT22;3720;48.274;7.796;2024-02-14T05:37:16;10.10;99.90
7360;DHT22;3720;48.274;7.796;2024-02-14T05:39:48;10.10;99.90
7360;DHT22;3720;48.274;7.796;2024-02-14T05:42:22;10.10;99.90
7360;DHT22;3720;48.274;7.796;2024-02-14T05:44:53;10.20;99.90
7360;DHT22;3720;48.274;7.796;2024-02-14T05:47:25;10.20;99.90
7360;DHT22;3720;48.274;7.796;2024-02-14T05:49:57;10.20;99.90
7360;DHT22;3720;48.274;7.796;2024-02-14T05:52:29;10.20;99.90
7360;DHT22;3720;48.274;7.796;2024-02-14T05:55:01;10.20;99.90
7360;DHT22;3720;48.274;7.796;2024-02-14T05:57:35;10.30;99.90
7360;DHT22;3720;48.274;7.796;2024-02-14T06:00:08;10.20;99.90
7360;DHT22;3720;48.274;7.796;2024-02-14T06:02:41;10.20;99.90
7360;DHT22;3720;48.274;7.796;2024-02-14T06:05:13;10.30;99.90
7360;DHT22;3720;48.274;7.796;2024-02-14T06:07:45;10.20;99.90
7360;DHT22;3720;48.274;7.796;2024-02-14T06:10:17;10.20;99.90
7360;DHT22;3720;48.274;7.796;2024-02-14T06:12:52;10.10;99.90
7360;DHT22;3720;48.274;7.796;2024-02-14T06:15:25;10.10;99.90
7360;DHT22;3720;48.274;7.796;2024-02-14T06:17:57;10.00;99.90
7360;DHT22;3720;48.274;7.796;2024-02-14T06:20:28;10.10;99.90
7360;DHT22;3720;48.274;7.796;2024-02-14T06:23:00;10.00;99.90
7360;DHT22;3720;48.274;7.796;2024-02-14T06:25:32;10.00;99.90
7360;DHT22;3720;48.274;7.796;2024-02-14T06:28:06;9.90;99.90
7360;DHT22;3720;48.274;7.796;2024-02-14T06:30:39;9.80;99.90
7360;DHT22;3720;48.274;7.796;2024-02-14T06:33:11;9.90;99.90
7360;DHT22;3720;48.274;7.796;2024-02-14T06:35:43;9.90;99.90
7360;DHT22;3720;48.274;7.796;2024-02-14T06:38:15;9.90;99.90
7360;DHT22;3720;48.274;7.796;2024-02-14T06:40:47;10.00;99.90
7360;DHT22;3720;48.274;7.796;2024-02-14T06:43:20;10.00;99.90
7360;DHT22;3720;48.274;7.796;2024-02-14T06:45:52;10.10;99.90
7360;DHT22;3720;48.274;7.796;2024-02-14T06:48:24;10.10;99.90
7360;DHT22;3720;48.274;7.796;2024-02-14T06:50:56;10.10;99.90
7360;DHT22;3720;48.274;7.796;2024-02-14T06:53:27;10.20;99.90
7360;DHT22;3720;48.274;7.796;2024-02-14T06:56:01;10.20;99.90
7360;DHT22;3720;48.274;7.796;2024-02-14T06:58:34;10.20;99.90
7360;DHT22;3720;48.274;7.796;2024-02-14T07:01:06;10.20;99.90
7360;DHT22;3720;48.274;7.796;2024-02-14T07:03:38;10.30;99.90
7360;DHT22;3720;48.274;7.796;2024-02-14T07:06:11;10.30;99.90
7360;DHT22;3720;48.274;7.796;2024-02-14T07:08:43;10.40;99.90
7360;DHT22;3720;48.274;7.796;2024-02-14T07:11:15;10.40;99.90
7360;DHT22;3720;48.274;7.796;2024-02-14T07:13:48;10.40;99.90
7360;DHT22;3720;48.274;7.796;2024-02-14T07:16:20;10.40;99.90
7360;DHT22;3720;48.274;7.796;2024-02-14T07:18:52;10.40;99.90
7360;DHT22;3720;48.274;7.796;2024-02-14T07:21:23;10.50;99.90
7360;DHT22;3720;48.274;7.796;2024-02-14T07:23:55;10.50;99.90
7360;DHT22;3720;48.274;7.796;2024-02-14T07:26:27;10.50;99.90
7360;DHT22;3720;48.274;7.796;2024-02-14T07:29:00;10.50;99.90
7360;DHT22;3720;48.274;7.796;2024-02-14T07:31:34;10.50;99.90
7360;DHT22;3720;48.274;7.796;2024-02-14T07:34:05;10.60;99.90
7360;DHT22;3720;48.274;7.796;2024-02-14T07:36:37;10.70;99.90
7360;DHT22;3720;48.274;7.796;2024-02-14T07:39:12;10.70;99.90
7360;DHT22;3720;48.274;7.796;2024-02-14T07:41:44;10.70;99.90
7360;DHT22;3720;48.274;7.796;2024-02-14T07:44:17;10.70;99.90
7360;DHT22;3720;48.274;7.796;2024-02-14T07:46:49;10.70;99.90
7360;DHT22;3720;48.274;7.796;2024-02-14T07:49:22;10.70;99.90
7360;DHT22;3720;48.274;7.796;2024-02-14T07:51:54;10.70;99.90
7360;DHT22;3720;48.274;7.796;2024-02-14T07:54:26;10.80;99.90
7360;DHT22;3720;48.274;7.796;2024-02-14T07:56:58;10.80;99.90
7360;DHT22;3720;48.274;7.796;2024-02-14T07:59:31;10.80;99.90
7360;DHT22;3720;48.274;7.796;2024-02-14T08:02:03;10.90;99.90
7360;DHT22;3720;48.274;7.796;2024-02-14T08:04:35;10.90;99.90
7360;DHT22;3720;48.274;7.796;2024-02-14T08:07:07;10.80;99.90
7360;DHT22;3720;48.274;7.796;2024-02-14T08:09:38;10.90;99.90
7360;DHT22;3720;48.274;7.796;2024-02-14T08:12:10;10.90;99.90
7360;DHT22;3720;48.274;7.796;2024-02-14T08:14:44;10.90;99.90
7360;DHT22;3720;48.274;7.796;2024-02-14T08:17:17;10.90;99.90
7360;DHT22;3720;48.274;7.796;2024-02-14T08:19:49;11.00;99.90
7360;DHT22;3720;48.274;7.796;2024-02-14T08:22:21;11.00;99.90
7360;DHT22;3720;48.274;7.796;2024-02-14T08:24:53;11.00;99.90
7360;DHT22;3720;48.274;7.796;2024-02-14T08:27:26;11.00;99.90
7360;DHT22;3720;48.274;7.796;2024-02-14T08:29:59;11.00;99.90
7360;DHT22;3720;48.274;7.796;2024-02-14T08:32:31;11.10;99.90
7360;DHT22;3720;48.274;7.796;2024-02-14T08:35:04;11.20;99.90
7360;DHT22;3720;48.274;7.796;2024-02-14T08:37:37;11.20;99.90
7360;DHT22;3720;48.274;7.796;2024-02-14T08:40:11;11.30;99.90
7360;DHT22;3720;48.274;7.796;2024-02-14T08:42:43;11.20;99.90
7360;DHT22;3720;48.274;7.796;2024-02-14T08:45:16;11.30;99.90
7360;DHT22;3720;48.274;7.796;2024-02-14T08:47:48;11.30;99.90
7360;DHT22;3720;48.274;7.796;2024-02-14T08:50:20;11.40;99.90
7360;DHT22;3720;48.274;7.796;2024-02-14T08:52:52;11.40;99.90
7360;DHT22;3720;48.274;7.796;2024-02-14T08:55:23;11.30;99.90
7360;DHT22;3720;48.274;7.796;2024-02-14T08:57:55;11.20;99.90
7360;DHT22;3720;48.274;7.796;2024-02-14T09:00:29;11.20;99.90
7360;DHT22;3720;48.274;7.796;2024-02-14T09:03:03;11.20;99.90
7360;DHT22;3720;48.274;7.796;2024-02-14T09:05:35;11.20;99.90
7360;DHT22;3720;48.274;7.796;2024-02-14T09:08:07;11.20;99.90
7360;DHT22;3720;48.274;7.796;2024-02-14T09:10:39;11.20;99.90
7360;DHT22;3720;48.274;7.796;2024-02-14T09:13:11;11.10;99.90
7360;DHT22;3720;48.274;7.796;2024-02-14T09:15:44;11.10;99.90
7360;DHT22;3720;48.274;7.796;2024-02-14T09:18:16;11.20;99.90
7360;DHT22;3720;48.274;7.796;2024-02-14T09:20:49;11.20;99.90
7360;DHT22;3720;48.274;7.796;2024-02-14T09:23:21;11.30;99.90
7360;DHT22;3720;48.274;7.796;2024-02-14T09:25:53;11.30;99.90
7360;DHT22;3720;48.274;7.796;2024-02-14T09:28:25;11.40;99.90
7360;DHT22;3720;48.274;7.796;2024-02-14T09:30:58;11.50;99.90
7360;DHT22;3720;48.274;7.796;2024-02-14T09:33:30;11.50;99.90
7360;DHT22;3720;48.274;7.796;2024-02-14T09:36:02;11.60;99.90
7360;DHT22;3720;48.274;7.796;2024-02-14T09:38:34;11.60;99.90
7360;DHT22;3720;48.274;7.796;2024-02-14T09:41:14;11.60;99.90
7360;DHT22;3720;48.274;7.796;2024-02-14T09:43:47;11.60;99.90
7360;DHT22;3720;48.274;7.796;2024-02-14T09:46:23;11.60;99.90
7360;DHT22;3720;48.274;7.796;2024-02-14T09:48:56;11.60;99.90
7360;DHT22;3720;48.274;7.796;2024-02-14T09:51:31;11.60;99.90
7360;DHT22;3720;48.274;7.796;2024-02-14T09:54:03;11.70;99.90
7360;DHT22;3720;48.274;7.796;2024-02-14T09:56:35;11.70;99.90
7360;DHT22;3720;48.274;7.796;2024-02-14T09:59:08;11.70;99.90
7360;DHT22;3720;48.274;7.796;2024-02-14T10:01:42;11.70;99.90
7360;DHT22;3720;48.274;7.796;2024-02-14T10:04:14;11.70;99.90
7360;DHT22;3720;48.274;7.796;2024-02-14T10:06:48;11.80;99.90
7360;DHT22;3720;48.274;7.796;2024-02-14T10:09:21;11.80;99.90
7360;DHT22;3720;48.274;7.796;2024-02-14T10:11:53;11.90;99.90
7360;DHT22;3720;48.274;7.796;2024-02-14T10:14:25;11.90;99.90
7360;DHT22;3720;48.274;7.796;2024-02-14T10:16:58;12.00;99.90
7360;DHT22;3720;48.274;7.796;2024-02-14T10:19:30;12.00;99.90
7360;DHT22;3720;48.274;7.796;2024-02-14T10:22:02;12.10;99.90
7360;DHT22;3720;48.274;7.796;2024-02-14T10:24:36;12.20;99.90
7360;DHT22;3720;48.274;7.796;2024-02-14T10:27:07;12.20;99.90
7360;DHT22;3720;48.274;7.796;2024-02-14T10:29:39;12.30;99.90
7360;DHT22;3720;48.274;7.796;2024-02-14T10:32:16;12.40;99.90
7360;DHT22;3720;48.274;7.796;2024-02-14T10:34:47;12.40;99.90
7360;DHT22;3720;48.274;7.796;2024-02-14T10:37:21;12.50;99.90
7360;DHT22;3720;48.274;7.796;2024-02-14T10:39:53;12.60;99.90
7360;DHT22;3720;48.274;7.796;2024-02-14T10:42:28;12.70;99.90
7360;DHT22;3720;48.274;7.796;2024-02-14T10:45:00;12.70;99.90
7360;DHT22;3720;48.274;7.796;2024-02-14T10:47:34;12.80;99.90
7360;DHT22;3720;48.274;7.796;2024-02-14T10:50:07;12.80;99.90
7360;DHT22;3720;48.274;7.796;2024-02-14T10:52:41;12.90;99.90
7360;DHT22;3720;48.274;7.796;2024-02-14T10:55:13;13.10;99.90
7360;DHT22;3720;48.274;7.796;2024-02-14T10:57:46;13.10;99.90
7360;DHT22;3720;48.274;7.796;2024-02-14T11:00:18;13.10;99.90
7360;DHT22;3720;48.274;7.796;2024-02-14T11:02:52;13.10;99.90
7360;DHT22;3720;48.274;7.796;2024-02-14T11:05:25;13.20;99.90
7360;DHT22;3720;48.274;7.796;2024-02-14T11:07:56;13.20;99.90
7360;DHT22;3720;48.274;7.796;2024-02-14T11:10:29;13.20;99.90
7360;DHT22;3720;48.274;7.796;2024-02-14T11:13:01;13.30;99.90
7360;DHT22;3720;48.274;7.796;2024-02-14T11:15:35;13.30;99.90
7360;DHT22;3720;48.274;7.796;2024-02-14T11:18:09;13.30;99.90
7360;DHT22;3720;48.274;7.796;2024-02-14T11:20:41;13.40;99.90
7360;DHT22;3720;48.274;7.796;2024-02-14T11:23:21;13.60;99.90
7360;DHT22;3720;48.274;7.796;2024-02-14T11:25:59;13.80;99.90
7360;DHT22;3720;48.274;7.796;2024-02-14T11:28:31;13.90;99.90
7360;DHT22;3720;48.274;7.796;2024-02-14T11:31:03;14.10;99.90
7360;DHT22;3720;48.274;7.796;2024-02-14T11:33:37;14.30;99.90
7360;DHT22;3720;48.274;7.796;2024-02-14T11:36:10;14.40;99.90
7360;DHT22;3720;48.274;7.796;2024-02-14T11:38:42;14.70;99.90
7360;DHT22;3720;48.274;7.796;2024-02-14T11:41:13;14.90;99.90
7360;DHT22;3720;48.274;7.796;2024-02-14T11:43:51;15.00;99.90
7360;DHT22;3720;48.274;7.796;2024-02-14T11:46:22;15.00;99.90
7360;DHT22;3720;48.274;7.796;2024-02-14T11:48:56;15.00;99.90
7360;DHT22;3720;48.274;7.796;2024-02-14T11:51:28;14.90;99.90
7360;DHT22;3720;48.274;7.796;2024-02-14T11:54:01;14.70;99.90
7360;DHT22;3720;48.274;7.796;2024-02-14T11:56:36;14.60;99.90
7360;DHT22;3720;48.274;7.796;2024-02-14T11:59:08;14.40;99.90
7360;DHT22;3720;48.274;7.796;2024-02-14T12:01:41;14.20;99.90
7360;DHT22;3720;48.274;7.796;2024-02-14T12:04:14;14.20;99.90
7360;DHT22;3720;48.274;7.796;2024-02-14T12:06:46;14.10;99.90
7360;DHT22;3720;48.274;7.796;2024-02-14T12:09:18;14.10;99.90
7360;DHT22;3720;48.274;7.796;2024-02-14T12:11:50;14.10;99.90
7360;DHT22;3720;48.274;7.796;2024-02-14T12:14:22;14.00;99.90
7360;DHT22;3720;48.274;7.796;2024-02-14T12:16:59;14.00;99.90
7360;DHT22;3720;48.274;7.796;2024-02-14T12:19:34;13.90;99.90
7360;DHT22;3720;48.274;7.796;2024-02-14T12:22:09;13.90;99.90
7360;DHT22;3720;48.274;7.796;2024-02-14T12:24:48;13.90;99.90
7360;DHT22;3720;48.274;7.796;2024-02-14T12:27:20;13.90;99.90
7360;DHT22;3720;48.274;7.796;2024-02-14T12:29:52;13.90;99.90
7360;DHT22;3720;48.274;7.796;2024-02-14T12:32:23;13.90;99.90
7360;DHT22;3720;48.274;7.796;2024-02-14T12:34:57;13.90;99.90
7360;DHT22;3720;48.274;7.796;2024-02-14T12:37:29;14.00;99.90
7360;DHT22;3720;48.274;7.796;2024-02-14T12:40:01;14.10;99.90
7360;DHT22;3720;48.274;7.796;2024-02-14T12:42:34;14.20;99.90
7360;DHT22;3720;48.274;7.796;2024-02-14T12:45:07;14.20;99.90
7360;DHT22;3720;48.274;7.796;2024-02-14T12:47:39;14.30;99.90
7360;DHT22;3720;48.274;7.796;2024-02-14T12:50:15;14.40;99.90
7360;DHT22;3720;48.274;7.796;2024-02-14T12:52:47;14.50;99.90
7360;DHT22;3720;48.274;7.796;2024-02-14T12:55:19;14.50;99.90
7360;DHT22;3720;48.274;7.796;2024-02-14T12:57:51;14.40;99.90
7360;DHT22;3720;48.274;7.796;2024-02-14T13:00:23;14.40;99.90
7360;DHT22;3720;48.274;7.796;2024-02-14T13:02:55;14.40;99.90
7360;DHT22;3720;48.274;7.796;2024-02-14T13:05:28;14.40;99.90
7360;DHT22;3720;48.274;7.796;2024-02-14T13:08:00;14.40;99.90
7360;DHT22;3720;48.274;7.796;2024-02-14T13:10:32;14.40;99.90
7360;DHT22;3720;48.274;7.796;2024-02-14T13:13:04;14.40;99.90
7360;DHT22;3720;48.274;7.796;2024-02-14T13:15:36;14.40;99.90
7360;DHT22;3720;48.274;7.796;2024-02-14T13:18:08;14.40;99.90
7360;DHT22;3720;48.274;7.796;2024-02-14T13:20:41;14.60;99.90
7360;DHT22;3720;48.274;7.796;2024-02-14T13:23:14;15.00;99.90
7360;DHT22;3720;48.274;7.796;2024-02-14T13:25:46;15.40;99.90
7360;DHT22;3720;48.274;7.796;2024-02-14T13:28:19;15.30;99.90
7360;DHT22;3720;48.274;7.796;2024-02-14T13:30:51;15.40;99.90
7360;DHT22;3720;48.274;7.796;2024-02-14T13:33:23;15.50;99.90
7360;DHT22;3720;48.274;7.796;2024-02-14T13:35:56;15.60;99.90
7360;DHT22;3720;48.274;7.796;2024-02-14T13:38:28;15.60;99.90
7360;DHT22;3720;48.274;7.796;2024-02-14T13:41:00;15.60;99.90
7360;DHT22;3720;48.274;7.796;2024-02-14T13:43:32;15.40;99.90
7360;DHT22;3720;48.274;7.796;2024-02-14T13:46:04;15.40;99.90
7360;DHT22;3720;48.274;7.796;2024-02-14T13:48:36;15.30;99.90
7360;DHT22;3720;48.274;7.796;2024-02-14T13:51:10;15.20;99.90
7360;DHT22;3720;48.274;7.796;2024-02-14T13:53:41;15.30;99.90
7360;DHT22;3720;48.274;7.796;2024-02-14T13:56:13;15.40;99.90
7360;DHT22;3720;48.274;7.796;2024-02-14T13:58:46;15.60;99.90
7360;DHT22;3720;48.274;7.796;2024-02-14T14:01:19;15.70;99.90
7360;DHT22;3720;48.274;7.796;2024-02-14T14:03:51;15.70;99.90
7360;DHT22;3720;48.274;7.796;2024-02-14T14:06:26;15.60;99.90
7360;DHT22;3720;48.274;7.796;2024-02-14T14:08:58;15.50;99.90
7360;DHT22;3720;48.274;7.796;2024-02-14T14:11:30;15.30;99.90
7360;DHT22;3720;48.274;7.796;2024-02-14T14:14:02;15.10;99.90
7360;DHT22;3720;48.274;7.796;2024-02-14T14:16:34;15.10;99.90
7360;DHT22;3720;48.274;7.796;2024-02-14T14:19:06;15.00;99.90
7360;DHT22;3720;48.274;7.796;2024-02-14T14:21:40;14.90;99.90
7360;DHT22;3720;48.274;7.796;2024-02-14T14:24:12;14.90;99.90
7360;DHT22;3720;48.274;7.796;2024-02-14T14:26:43;14.80;99.90
7360;DHT22;3720;48.274;7.796;2024-02-14T14:29:16;14.70;99.90
7360;DHT22;3720;48.274;7.796;2024-02-14T14:31:48;14.70;99.90
7360;DHT22;3720;48.274;7.796;2024-02-14T14:34:20;14.70;99.90
7360;DHT22;3720;48.274;7.796;2024-02-14T14:36:53;14.70;99.90
7360;DHT22;3720;48.274;7.796;2024-02-14T14:39:26;14.60;99.90
7360;DHT22;3720;48.274;7.796;2024-02-14T14:41:58;14.60;99.90
7360;DHT22;3720;48.274;7.796;2024-02-14T14:44:31;14.50;99.90
7360;DHT22;3720;48.274;7.796;2024-02-14T14:47:05;14.50;99.90
7360;DHT22;3720;48.274;7.796;2024-02-14T14:49:37;14.40;99.90
7360;DHT22;3720;48.274;7.796;2024-02-14T14:52:10;14.30;99.90
7360;DHT22;3720;48.274;7.796;2024-02-14T14:54:42;14.30;99.90
7360;DHT22;3720;48.274;7.796;2024-02-14T14:57:14;14.20;99.90
7360;DHT22;3720;48.274;7.796;2024-02-14T14:59:46;14.10;99.90
7360;DHT22;3720;48.274;7.796;2024-02-14T15:02:18;14.00;99.90
7360;DHT22;3720;48.274;7.796;2024-02-14T15:04:50;14.00;99.90
7360;DHT22;3720;48.274;7.796;2024-02-14T15:07:23;13.90;99.90
7360;DHT22;3720;48.274;7.796;2024-02-14T15:09:55;13.90;99.90
7360;DHT22;3720;48.274;7.796;2024-02-14T15:12:27;13.90;99.90
7360;DHT22;3720;48.274;7.796;2024-02-14T15:14:58;13.90;99.90
7360;DHT22;3720;48.274;7.796;2024-02-14T15:17:30;13.90;99.90
7360;DHT22;3720;48.274;7.796;2024-02-14T15:20:02;13.90;99.90
7360;DHT22;3720;48.274;7.796;2024-02-14T15:22:36;13.90;99.90
7360;DHT22;3720;48.274;7.796;2024-02-14T15:25:08;13.90;99.90
7360;DHT22;3720;48.274;7.796;2024-02-14T15:27:40;13.90;99.90
7360;DHT22;3720;48.274;7.796;2024-02-14T15:30:25;13.90;99.90
7360;DHT22;3720;48.274;7.796;2024-02-14T15:33:14;13.90;99.90
7360;DHT22;3720;48.274;7.796;2024-02-14T15:35:57;13.90;99.90
7360;DHT22;3720;48.274;7.796;2024-02-14T15:38:31;13.90;99.90
7360;DHT22;3720;48.274;7.796;2024-02-14T15:41:03;13.90;99.90
7360;DHT22;3720;48.274;7.796;2024-02-14T15:43:37;13.90;99.90
7360;DHT22;3720;48.274;7.796;2024-02-14T15:46:09;13.90;99.90
7360;DHT22;3720;48.274;7.796;2024-02-14T15:48:41;13.90;99.90
7360;DHT22;3720;48.274;7.796;2024-02-14T15:51:13;13.90;99.90
7360;DHT22;3720;48.274;7.796;2024-02-14T15:53:49;13.90;99.90
7360;DHT22;3720;48.274;7.796;2024-02-14T15:56:21;13.90;99.90
7360;DHT22;3720;48.274;7.796;2024-02-14T15:58:53;13.90;99.90
7360;DHT22;3720;48.274;7.796;2024-02-14T16:01:25;13.90;99.90
7360;DHT22;3720;48.274;7.796;2024-02-14T16:03:56;13.90;99.90
7360;DHT22;3720;48.274;7.796;2024-02-14T16:06:29;13.90;99.90
7360;DHT22;3720;48.274;7.796;2024-02-14T16:09:03;13.90;99.90
7360;DHT22;3720;48.274;7.796;2024-02-14T16:11:35;13.80;99.90
7360;DHT22;3720;48.274;7.796;2024-02-14T16:14:07;13.80;99.90
7360;DHT22;3720;48.274;7.796;2024-02-14T16:16:38;13.80;99.90
7360;DHT22;3720;48.274;7.796;2024-02-14T16:19:10;13.80;99.90
7360;DHT22;3720;48.274;7.796;2024-02-14T16:21:42;13.80;99.90
7360;DHT22;3720;48.274;7.796;2024-02-14T16:24:15;13.80;99.90
7360;DHT22;3720;48.274;7.796;2024-02-14T16:26:47;13.80;99.90
7360;DHT22;3720;48.274;7.796;2024-02-14T16:29:19;13.70;99.90
7360;DHT22;3720;48.274;7.796;2024-02-14T16:31:51;13.70;99.90
7360;DHT22;3720;48.274;7.796;2024-02-14T16:34:22;13.70;99.90
7360;DHT22;3720;48.274;7.796;2024-02-14T16:36:54;13.70;99.90
7360;DHT22;3720;48.274;7.796;2024-02-14T16:39:28;13.70;99.90
7360;DHT22;3720;48.274;7.796;2024-02-14T16:41:59;13.70;99.90